sensor_id;sensor_type;location;lat;lon;timestamp;temperature;humidity
39931;DHT22;26635;-35.248;149.138;2023-06-05T00:02:21;11.70;83.70
39931;DHT22;26635;-35.248;149.138;2023-06-05T00:04:52;11.80;83.70
39931;DHT22;26635;-35.248;149.138;2023-06-05T00:07:23;11.80;83.50
39931;DHT22;26635;-35.248;149.138;2023-06-05T00:09:53;11.90;83.90
39931;DHT22;26635;-35.248;149.138;2023-06-05T00:12:24;12.00;83.90
39931;DHT22;26635;-35.248;149.138;2023-06-05T00:14:54;12.10;84.30
39931;DHT22;26635;-35.248;149.138;2023-06-05T00:17:25;12.20;83.60
39931;DHT22;26635;-35.248;149.138;2023-06-05T00:19:55;12.30;83.20
39931;DHT22;26635;-35.248;149.138;2023-06-05T00:22:28;12.30;82.10
39931;DHT22;26635;-35.248;149.138;2023-06-05T00:25:00;12.40;82.10
39931;DHT22;26635;-35.248;149.138;2023-06-05T00:27:31;12.40;82.60
39931;DHT22;26635;-35.248;149.138;2023-06-05T00:30:02;12.50;82.80
39931;DHT22;26635;-35.248;149.138;2023-06-05T00:32:33;12.50;82.10
39931;DHT22;26635;-35.248;149.138;2023-06-05T00:35:04;12.60;82.00
39931;DHT22;26635;-35.248;149.138;2023-06-05T00:37:34;12.60;81.30
39931;DHT22;26635;-35.248;149.138;2023-06-05T00:40:07;12.60;81.40
39931;DHT22;26635;-35.248;149.138;2023-06-05T00:42:39;12.60;82.10
39931;DHT22;26635;-35.248;149.138;2023-06-05T00:45:11;12.60;81.40
39931;DHT22;26635;-35.248;149.138;2023-06-05T00:47:42;12.50;82.50
39931;DHT22;26635;-35.248;149.138;2023-06-05T00:50:12;12.60;83.10
39931;DHT22;26635;-35.248;149.138;2023-06-05T00:52:44;12.60;82.20
39931;DHT22;26635;-35.248;149.138;2023-06-05T00:55:16;12.60;82.10
39931;DHT22;26635;-35.248;149.138;2023-06-05T00:57:46;12.70;82.10
39931;DHT22;26635;-35.248;149.138;2023-06-05T01:00:17;12.60;82.30
39931;DHT22;26635;-35.248;149.138;2023-06-05T01:02:48;12.70;82.70
39931;DHT22;26635;-35.248;149.138;2023-06-05T01:05:23;12.70;82.10
39931;DHT22;26635;-35.248;149.138;2023-06-05T01:07:56;12.60;81.10
39931;DHT22;26635;-35.248;149.138;2023-06-05T01:10:31;12.70;81.80
39931;DHT22;26635;-35.248;149.138;2023-06-05T01:13:24;12.70;82.10
39931;DHT22;26635;-35.248;149.138;2023-06-05T01:15:55;12.70;81.10
39931;DHT22;26635;-35.248;149.138;2023-06-05T01:18:28;12.80;81.60
39931;DHT22;26635;-35.248;149.138;2023-06-05T01:21:01;12.80;81.20
39931;DHT22;26635;-35.248;149.138;2023-06-05T01:23:33;12.90;81.10
39931;DHT22;26635;-35.248;149.138;2023-06-05T01:26:08;13.00;81.50
39931;DHT22;26635;-35.248;149.138;2023-06-05T01:28:39;13.00;80.00
39931;DHT22;26635;-35.248;149.138;2023-06-05T01:31:12;12.90;78.90
39931;DHT22;26635;-35.248;149.138;2023-06-05T01:34:00;13.00;79.90
39931;DHT22;26635;-35.248;149.138;2023-06-05T01:36:35;13.10;80.10
39931;DHT22;26635;-35.248;149.138;2023-06-05T01:39:07;13.20;80.50
39931;DHT22;26635;-35.248;149.138;2023-06-05T01:41:39;13.20;78.10
39931;DHT22;26635;-35.248;149.138;2023-06-05T01:44:11;13.20;78.90
39931;DHT22;26635;-35.248;149.138;2023-06-05T01:46:43;13.30;80.00
39931;DHT22;26635;-35.248;149.138;2023-06-05T01:49:15;13.30;79.90
39931;DHT22;26635;-35.248;149.138;2023-06-05T01:51:45;13.30;79.50
39931;DHT22;26635;-35.248;149.138;2023-06-05T01:54:16;13.20;78.80
39931;DHT22;26635;-35.248;149.138;2023-06-05T01:56:48;13.10;78.90
39931;DHT22;26635;-35.248;149.138;2023-06-05T01:59:20;13.00;79.70
39931;DHT22;26635;-35.248;149.138;2023-06-05T02:01:51;13.00;79.40
39931;DHT22;26635;-35.248;149.138;2023-06-05T02:04:22;13.00;79.60
39931;DHT22;26635;-35.248;149.138;2023-06-05T02:06:54;13.10;80.00
39931;DHT22;26635;-35.248;149.138;2023-06-05T02:09:30;13.30;79.50
39931;DHT22;26635;-35.248;149.138;2023-06-05T02:12:04;13.40;78.40
39931;DHT22;26635;-35.248;149.138;2023-06-05T02:14:35;13.50;78.80
39931;DHT22;26635;-35.248;149.138;2023-06-05T02:17:10;13.70;79.10
39931;DHT22;26635;-35.248;149.138;2023-06-05T02:19:53;13.70;77.60
39931;DHT22;26635;-35.248;149.138;2023-06-05T02:22:33;13.70;77.80
39931;DHT22;26635;-35.248;149.138;2023-06-05T02:25:04;13.70;78.10
39931;DHT22;26635;-35.248;149.138;2023-06-05T02:27:35;13.60;77.60
39931;DHT22;26635;-35.248;149.138;2023-06-05T02:30:06;13.50;78.10
39931;DHT22;26635;-35.248;149.138;2023-06-05T02:32:38;13.50;78.30
39931;DHT22;26635;-35.248;149.138;2023-06-05T02:35:14;13.50;78.60
39931;DHT22;26635;-35.248;149.138;2023-06-05T02:37:44;13.40;79.40
39931;DHT22;26635;-35.248;149.138;2023-06-05T02:40:16;13.40;80.30
39931;DHT22;26635;-35.248;149.138;2023-06-05T02:42:46;13.40;78.20
39931;DHT22;26635;-35.248;149.138;2023-06-05T02:45:17;13.40;78.40
39931;DHT22;26635;-35.248;149.138;2023-06-05T02:47:49;13.30;79.20
39931;DHT22;26635;-35.248;149.138;2023-06-05T02:50:20;13.30;80.10
39931;DHT22;26635;-35.248;149.138;2023-06-05T02:52:50;13.30;79.80
39931;DHT22;26635;-35.248;149.138;2023-06-05T02:55:21;13.20;79.30
39931;DHT22;26635;-35.248;149.138;2023-06-05T02:57:51;13.30;80.90
39931;DHT22;26635;-35.248;149.138;2023-06-05T03:00:22;13.30;79.90
39931;DHT22;26635;-35.248;149.138;2023-06-05T03:02:53;13.40;79.90
39931;DHT22;26635;-35.248;149.138;2023-06-05T03:05:25;13.40;78.90
39931;DHT22;26635;-35.248;149.138;2023-06-05T03:07:56;13.40;78.60
39931;DHT22;26635;-35.248;149.138;2023-06-05T03:10:27;13.30;79.20
39931;DHT22;26635;-35.248;149.138;2023-06-05T03:12:57;13.40;78.80
39931;DHT22;26635;-35.248;149.138;2023-06-05T03:15:28;13.40;79.20
39931;DHT22;26635;-35.248;149.138;2023-06-05T03:17:58;13.40;79.30
39931;DHT22;26635;-35.248;149.138;2023-06-05T03:20:29;13.40;79.90
39931;DHT22;26635;-35.248;149.138;2023-06-05T03:23:00;13.40;79.60
39931;DHT22;26635;-35.248;149.138;2023-06-05T03:25:31;13.40;80.30
39931;DHT22;26635;-35.248;149.138;2023-06-05T03:28:03;13.40;79.50
39931;DHT22;26635;-35.248;149.138;2023-06-05T03:30:35;13.40;79.60
39931;DHT22;26635;-35.248;149.138;2023-06-05T03:33:06;13.50;79.70
39931;DHT22;26635;-35.248;149.138;2023-06-05T03:35:38;13.50;80.00
39931;DHT22;26635;-35.248;149.138;2023-06-05T03:38:10;13.60;79.80
39931;DHT22;26635;-35.248;149.138;2023-06-05T03:40:42;13.70;79.80
39931;DHT22;26635;-35.248;149.138;2023-06-05T03:43:14;13.70;80.10
39931;DHT22;26635;-35.248;149.138;2023-06-05T03:45:45;13.80;79.20
39931;DHT22;26635;-35.248;149.138;2023-06-05T03:48:16;13.90;79.20
39931;DHT22;26635;-35.248;149.138;2023-06-05T03:50:48;14.00;78.50
39931;DHT22;26635;-35.248;149.138;2023-06-05T03:53:23;14.10;77.80
39931;DHT22;26635;-35.248;149.138;2023-06-05T03:55:54;14.10;78.20
39931;DHT22;26635;-35.248;149.138;2023-06-05T03:58:27;14.10;77.80
39931;DHT22;26635;-35.248;149.138;2023-06-05T04:00:59;14.20;78.00
39931;DHT22;26635;-35.248;149.138;2023-06-05T04:03:30;14.20;77.50
39931;DHT22;26635;-35.248;149.138;2023-06-05T04:06:01;14.20;77.60
39931;DHT22;26635;-35.248;149.138;2023-06-05T04:08:32;14.20;77.40
39931;DHT22;26635;-35.248;149.138;2023-06-05T04:11:03;14.20;77.30
39931;DHT22;26635;-35.248;149.138;2023-06-05T04:13:35;14.10;77.90
39931;DHT22;26635;-35.248;149.138;2023-06-05T04:16:06;14.00;78.20
39931;DHT22;26635;-35.248;149.138;2023-06-05T04:18:36;13.90;78.60
39931;DHT22;26635;-35.248;149.138;2023-06-05T04:21:06;13.90;78.90
39931;DHT22;26635;-35.248;149.138;2023-06-05T04:23:37;13.90;78.50
39931;DHT22;26635;-35.248;149.138;2023-06-05T04:26:08;13.90;78.80
39931;DHT22;26635;-35.248;149.138;2023-06-05T04:28:38;13.80;79.60
39931;DHT22;26635;-35.248;149.138;2023-06-05T04:31:08;13.80;79.60
39931;DHT22;26635;-35.248;149.138;2023-06-05T04:33:39;13.70;79.40
39931;DHT22;26635;-35.248;149.138;2023-06-05T04:36:09;13.60;79.80
39931;DHT22;26635;-35.248;149.138;2023-06-05T04:38:41;13.50;79.90
39931;DHT22;26635;-35.248;149.138;2023-06-05T04:41:12;13.50;80.20
39931;DHT22;26635;-35.248;149.138;2023-06-05T04:43:43;13.50;80.30
39931;DHT22;26635;-35.248;149.138;2023-06-05T04:46:14;13.50;81.30
39931;DHT22;26635;-35.248;149.138;2023-06-05T04:48:45;13.50;80.40
39931;DHT22;26635;-35.248;149.138;2023-06-05T04:51:15;13.50;81.10
39931;DHT22;26635;-35.248;149.138;2023-06-05T04:53:46;13.50;80.70
39931;DHT22;26635;-35.248;149.138;2023-06-05T04:56:21;13.50;80.50
39931;DHT22;26635;-35.248;149.138;2023-06-05T04:58:52;13.50;81.00
39931;DHT22;26635;-35.248;149.138;2023-06-05T05:01:23;13.50;80.50
39931;DHT22;26635;-35.248;149.138;2023-06-05T05:03:54;13.60;80.60
39931;DHT22;26635;-35.248;149.138;2023-06-05T05:06:25;13.70;80.40
39931;DHT22;26635;-35.248;149.138;2023-06-05T05:08:56;13.70;81.20
39931;DHT22;26635;-35.248;149.138;2023-06-05T05:11:30;13.70;80.10
39931;DHT22;26635;-35.248;149.138;2023-06-05T05:14:00;13.80;80.30
39931;DHT22;26635;-35.248;149.138;2023-06-05T05:16:30;13.70;80.40
39931;DHT22;26635;-35.248;149.138;2023-06-05T05:19:04;13.80;80.60
39931;DHT22;26635;-35.248;149.138;2023-06-05T05:21:35;13.70;80.20
39931;DHT22;26635;-35.248;149.138;2023-06-05T05:24:06;13.70;80.80
39931;DHT22;26635;-35.248;149.138;2023-06-05T05:26:36;13.70;80.70
39931;DHT22;26635;-35.248;149.138;2023-06-05T05:29:09;13.60;81.10
39931;DHT22;26635;-35.248;149.138;2023-06-05T05:31:39;13.50;82.40
39931;DHT22;26635;-35.248;149.138;2023-06-05T05:34:09;13.50;82.70
39931;DHT22;26635;-35.248;149.138;2023-06-05T05:36:40;13.40;82.10
39931;DHT22;26635;-35.248;149.138;2023-06-05T05:39:10;13.40;81.90
39931;DHT22;26635;-35.248;149.138;2023-06-05T05:41:40;13.30;81.30
39931;DHT22;26635;-35.248;149.138;2023-06-05T05:44:10;13.30;81.90
39931;DHT22;26635;-35.248;149.138;2023-06-05T05:46:41;13.30;82.50
39931;DHT22;26635;-35.248;149.138;2023-06-05T05:49:12;13.30;81.90
39931;DHT22;26635;-35.248;149.138;2023-06-05T05:51:42;13.20;81.90
39931;DHT22;26635;-35.248;149.138;2023-06-05T05:54:12;13.20;82.70
39931;DHT22;26635;-35.248;149.138;2023-06-05T05:56:43;13.20;82.90
39931;DHT22;26635;-35.248;149.138;2023-06-05T05:59:13;13.20;82.80
39931;DHT22;26635;-35.248;149.138;2023-06-05T06:01:44;13.20;82.80
39931;DHT22;26635;-35.248;149.138;2023-06-05T06:04:16;13.20;83.40
39931;DHT22;26635;-35.248;149.138;2023-06-05T06:06:48;13.10;83.20
39931;DHT22;26635;-35.248;149.138;2023-06-05T06:09:24;13.20;83.20
39931;DHT22;26635;-35.248;149.138;2023-06-05T06:11:56;13.10;83.20
39931;DHT22;26635;-35.248;149.138;2023-06-05T06:14:26;13.10;83.30
39931;DHT22;26635;-35.248;149.138;2023-06-05T06:16:57;13.10;83.50
39931;DHT22;26635;-35.248;149.138;2023-06-05T06:19:29;13.10;84.00
39931;DHT22;26635;-35.248;149.138;2023-06-05T06:22:04;13.10;83.60
39931;DHT22;26635;-35.248;149.138;2023-06-05T06:24:43;13.00;84.20
39931;DHT22;26635;-35.248;149.138;2023-06-05T06:27:14;13.00;83.90
39931;DHT22;26635;-35.248;149.138;2023-06-05T06:30:01;13.00;84.30
39931;DHT22;26635;-35.248;149.138;2023-06-05T06:32:34;13.00;83.40
39931;DHT22;26635;-35.248;149.138;2023-06-05T06:35:05;13.00;84.10
39931;DHT22;26635;-35.248;149.138;2023-06-05T06:37:36;13.00;84.00
39931;DHT22;26635;-35.248;149.138;2023-06-05T06:40:07;13.00;84.90
39931;DHT22;26635;-35.248;149.138;2023-06-05T06:42:42;13.00;84.40
39931;DHT22;26635;-35.248;149.138;2023-06-05T06:45:13;13.00;84.30
39931;DHT22;26635;-35.248;149.138;2023-06-05T06:47:44;13.00;84.20
39931;DHT22;26635;-35.248;149.138;2023-06-05T06:50:34;12.90;84.60
39931;DHT22;26635;-35.248;149.138;2023-06-05T06:53:05;13.00;84.30
39931;DHT22;26635;-35.248;149.138;2023-06-05T06:55:36;12.90;83.90
39931;DHT22;26635;-35.248;149.138;2023-06-05T06:58:07;12.90;84.30
39931;DHT22;26635;-35.248;149.138;2023-06-05T07:00:37;12.90;84.30
39931;DHT22;26635;-35.248;149.138;2023-06-05T07:03:08;12.90;84.60
39931;DHT22;26635;-35.248;149.138;2023-06-05T07:05:39;12.80;84.60
39931;DHT22;26635;-35.248;149.138;2023-06-05T07:08:13;12.80;85.50
39931;DHT22;26635;-35.248;149.138;2023-06-05T07:10:48;12.80;85.20
39931;DHT22;26635;-35.248;149.138;2023-06-05T07:13:19;12.80;85.20
39931;DHT22;26635;-35.248;149.138;2023-06-05T07:15:49;12.80;84.90
39931;DHT22;26635;-35.248;149.138;2023-06-05T07:18:20;12.80;84.60
39931;DHT22;26635;-35.248;149.138;2023-06-05T07:24:40;12.80;85.00
39931;DHT22;26635;-35.248;149.138;2023-06-05T07:27:11;12.70;85.30
39931;DHT22;26635;-35.248;149.138;2023-06-05T07:29:42;12.70;85.40
39931;DHT22;26635;-35.248;149.138;2023-06-05T07:32:16;12.70;85.40
39931;DHT22;26635;-35.248;149.138;2023-06-05T07:34:47;12.70;85.90
39931;DHT22;26635;-35.248;149.138;2023-06-05T07:37:18;12.60;85.80
39931;DHT22;26635;-35.248;149.138;2023-06-05T07:39:48;12.70;85.90
39931;DHT22;26635;-35.248;149.138;2023-06-05T07:42:21;12.60;85.50
39931;DHT22;26635;-35.248;149.138;2023-06-05T07:44:51;12.60;86.10
39931;DHT22;26635;-35.248;149.138;2023-06-05T07:47:22;12.50;86.10
39931;DHT22;26635;-35.248;149.138;2023-06-05T07:50:02;12.50;86.00
39931;DHT22;26635;-35.248;149.138;2023-06-05T07:52:36;12.40;86.00
39931;DHT22;26635;-35.248;149.138;2023-06-05T07:55:07;12.30;86.90
39931;DHT22;26635;-35.248;149.138;2023-06-05T07:57:38;12.30;87.30
39931;DHT22;26635;-35.248;149.138;2023-06-05T08:00:08;12.20;87.40
39931;DHT22;26635;-35.248;149.138;2023-06-05T08:02:39;12.20;87.70
39931;DHT22;26635;-35.248;149.138;2023-06-05T08:05:10;12.10;88.20
39931;DHT22;26635;-35.248;149.138;2023-06-05T08:07:41;12.00;88.00
39931;DHT22;26635;-35.248;149.138;2023-06-05T08:10:12;12.00;88.40
39931;DHT22;26635;-35.248;149.138;2023-06-05T08:12:42;12.00;88.70
39931;DHT22;26635;-35.248;149.138;2023-06-05T08:15:13;11.90;89.30
39931;DHT22;26635;-35.248;149.138;2023-06-05T08:17:44;11.90;89.10
39931;DHT22;26635;-35.248;149.138;2023-06-05T08:20:14;11.80;88.70
39931;DHT22;26635;-35.248;149.138;2023-06-05T08:22:44;11.80;88.80
39931;DHT22;26635;-35.248;149.138;2023-06-05T08:25:15;11.70;89.30
39931;DHT22;26635;-35.248;149.138;2023-06-05T08:27:47;11.70;89.60
39931;DHT22;26635;-35.248;149.138;2023-06-05T08:30:18;11.60;90.00
39931;DHT22;26635;-35.248;149.138;2023-06-05T08:32:48;11.60;90.00
39931;DHT22;26635;-35.248;149.138;2023-06-05T08:35:19;11.50;90.30
39931;DHT22;26635;-35.248;149.138;2023-06-05T08:37:50;11.50;90.30
39931;DHT22;26635;-35.248;149.138;2023-06-05T08:40:20;11.50;90.20
39931;DHT22;26635;-35.248;149.138;2023-06-05T08:42:51;11.40;90.30
39931;DHT22;26635;-35.248;149.138;2023-06-05T08:45:22;11.40;90.30
39931;DHT22;26635;-35.248;149.138;2023-06-05T08:47:55;11.40;90.70
39931;DHT22;26635;-35.248;149.138;2023-06-05T08:50:28;11.40;90.90
39931;DHT22;26635;-35.248;149.138;2023-06-05T08:53:00;11.40;90.80
39931;DHT22;26635;-35.248;149.138;2023-06-05T08:55:33;11.40;90.80
39931;DHT22;26635;-35.248;149.138;2023-06-05T08:58:04;11.30;91.00
39931;DHT22;26635;-35.248;149.138;2023-06-05T09:00:36;11.30;90.90
39931;DHT22;26635;-35.248;149.138;2023-06-05T09:03:10;11.30;90.80
39931;DHT22;26635;-35.248;149.138;2023-06-05T09:05:49;11.20;91.10
39931;DHT22;26635;-35.248;149.138;2023-06-05T09:08:33;11.20;91.30
39931;DHT22;26635;-35.248;149.138;2023-06-05T09:11:27;11.10;91.50
39931;DHT22;26635;-35.248;149.138;2023-06-05T09:13:59;11.10;91.30
39931;DHT22;26635;-35.248;149.138;2023-06-05T09:16:42;11.10;91.30
39931;DHT22;26635;-35.248;149.138;2023-06-05T09:19:15;11.10;91.20
39931;DHT22;26635;-35.248;149.138;2023-06-05T09:21:54;11.10;91.30
39931;DHT22;26635;-35.248;149.138;2023-06-05T09:24:26;11.10;91.20
39931;DHT22;26635;-35.248;149.138;2023-06-05T09:27:05;11.00;91.30
39931;DHT22;26635;-35.248;149.138;2023-06-05T09:29:38;11.00;91.40
39931;DHT22;26635;-35.248;149.138;2023-06-05T09:34:47;10.90;91.40
39931;DHT22;26635;-35.248;149.138;2023-06-05T09:37:36;10.80;91.20
39931;DHT22;26635;-35.248;149.138;2023-06-05T09:40:08;10.80;91.30
39931;DHT22;26635;-35.248;149.138;2023-06-05T09:42:45;10.80;91.50
39931;DHT22;26635;-35.248;149.138;2023-06-05T09:45:16;10.80;91.70
39931;DHT22;26635;-35.248;149.138;2023-06-05T09:47:47;10.80;91.80
39931;DHT22;26635;-35.248;149.138;2023-06-05T09:50:22;10.90;91.70
39931;DHT22;26635;-35.248;149.138;2023-06-05T09:52:56;10.90;91.70
39931;DHT22;26635;-35.248;149.138;2023-06-05T09:55:28;10.90;91.80
39931;DHT22;26635;-35.248;149.138;2023-06-05T09:58:00;11.00;91.90
39931;DHT22;26635;-35.248;149.138;2023-06-05T10:00:42;11.10;92.00
39931;DHT22;26635;-35.248;149.138;2023-06-05T10:03:18;11.10;92.10
39931;DHT22;26635;-35.248;149.138;2023-06-05T10:05:50;11.20;92.00
39931;DHT22;26635;-35.248;149.138;2023-06-05T10:08:33;11.20;92.10
39931;DHT22;26635;-35.248;149.138;2023-06-05T10:11:24;11.20;91.90
39931;DHT22;26635;-35.248;149.138;2023-06-05T10:14:16;11.20;91.80
39931;DHT22;26635;-35.248;149.138;2023-06-05T10:17:07;11.30;91.80
39931;DHT22;26635;-35.248;149.138;2023-06-05T10:19:58;11.30;91.80
39931;DHT22;26635;-35.248;149.138;2023-06-05T10:22:29;11.40;91.70
39931;DHT22;26635;-35.248;149.138;2023-06-05T10:25:04;11.40;91.60
39931;DHT22;26635;-35.248;149.138;2023-06-05T10:36:30;11.20;91.70
39931;DHT22;26635;-35.248;149.138;2023-06-05T10:39:11;11.10;91.80
39931;DHT22;26635;-35.248;149.138;2023-06-05T10:41:42;11.10;91.90
39931;DHT22;26635;-35.248;149.138;2023-06-05T10:44:12;11.00;91.90
39931;DHT22;26635;-35.248;149.138;2023-06-05T10:46:43;11.00;92.20
39931;DHT22;26635;-35.248;149.138;2023-06-05T10:49:18;11.00;92.30
39931;DHT22;26635;-35.248;149.138;2023-06-05T10:51:52;11.00;92.40
39931;DHT22;26635;-35.248;149.138;2023-06-05T10:57:07;11.00;92.40
39931;DHT22;26635;-35.248;149.138;2023-06-05T10:59:40;11.00;92.30
39931;DHT22;26635;-35.248;149.138;2023-06-05T11:07:26;11.10;92.30
39931;DHT22;26635;-35.248;149.138;2023-06-05T11:15:15;11.10;92.40
39931;DHT22;26635;-35.248;149.138;2023-06-05T11:17:47;11.10;92.30
39931;DHT22;26635;-35.248;149.138;2023-06-05T11:23:06;11.20;92.40
39931;DHT22;26635;-35.248;149.138;2023-06-05T11:25:37;11.20;92.50
39931;DHT22;26635;-35.248;149.138;2023-06-05T11:28:08;11.20;92.50
39931;DHT22;26635;-35.248;149.138;2023-06-05T11:33:20;11.30;92.60
39931;DHT22;26635;-35.248;149.138;2023-06-05T11:35:51;11.30;92.40
39931;DHT22;26635;-35.248;149.138;2023-06-05T11:38:29;11.40;92.60
39931;DHT22;26635;-35.248;149.138;2023-06-05T11:41:06;11.40;92.50
39931;DHT22;26635;-35.248;149.138;2023-06-05T11:43:43;11.40;92.50
39931;DHT22;26635;-35.248;149.138;2023-06-05T11:46:14;11.40;92.50
39931;DHT22;26635;-35.248;149.138;2023-06-05T11:48:45;11.50;92.60
39931;DHT22;26635;-35.248;149.138;2023-06-05T11:51:16;11.50;92.50
39931;DHT22;26635;-35.248;149.138;2023-06-05T11:53:46;11.50;92.40
39931;DHT22;26635;-35.248;149.138;2023-06-05T11:56:17;11.50;92.50
39931;DHT22;26635;-35.248;149.138;2023-06-05T11:58:49;11.50;92.40
39931;DHT22;26635;-35.248;149.138;2023-06-05T12:01:20;11.60;92.50
39931;DHT22;26635;-35.248;149.138;2023-06-05T12:04:07;11.60;92.90
39931;DHT22;26635;-35.248;149.138;2023-06-05T12:06:45;11.60;92.30
39931;DHT22;26635;-35.248;149.138;2023-06-05T12:09:22;11.60;92.50
39931;DHT22;26635;-35.248;149.138;2023-06-05T12:12:05;11.60;92.50
39931;DHT22;26635;-35.248;149.138;2023-06-05T12:14:40;11.60;92.20
39931;DHT22;26635;-35.248;149.138;2023-06-05T12:17:12;11.60;92.30
39931;DHT22;26635;-35.248;149.138;2023-06-05T12:19:43;11.60;92.30
39931;DHT22;26635;-35.248;149.138;2023-06-05T12:22:22;11.60;92.20
39931;DHT22;26635;-35.248;149.138;2023-06-05T12:24:53;11.60;92.20
39931;DHT22;26635;-35.248;149.138;2023-06-05T12:27:36;11.60;92.20
39931;DHT22;26635;-35.248;149.138;2023-06-05T12:30:07;11.70;91.90
39931;DHT22;26635;-35.248;149.138;2023-06-05T12:32:40;11.70;92.00
39931;DHT22;26635;-35.248;149.138;2023-06-05T12:35:20;11.70;92.30
39931;DHT22;26635;-35.248;149.138;2023-06-05T12:37:52;11.70;92.20
39931;DHT22;26635;-35.248;149.138;2023-06-05T12:40:22;11.70;92.20
39931;DHT22;26635;-35.248;149.138;2023-06-05T12:43:14;11.70;92.10
39931;DHT22;26635;-35.248;149.138;2023-06-05T12:45:46;11.70;92.20
39931;DHT22;26635;-35.248;149.138;2023-06-05T12:48:20;11.70;92.20
39931;DHT22;26635;-35.248;149.138;2023-06-05T12:50:53;11.70;92.00
39931;DHT22;26635;-35.248;149.138;2023-06-05T12:53:27;11.70;92.10
39931;DHT22;26635;-35.248;149.138;2023-06-05T12:55:57;11.70;92.10
39931;DHT22;26635;-35.248;149.138;2023-06-05T12:58:28;11.70;92.10
39931;DHT22;26635;-35.248;149.138;2023-06-05T13:00:58;11.80;92.10
39931;DHT22;26635;-35.248;149.138;2023-06-05T13:03:29;11.80;92.10
39931;DHT22;26635;-35.248;149.138;2023-06-05T13:06:00;11.80;92.10
39931;DHT22;26635;-35.248;149.138;2023-06-05T13:08:30;11.80;92.20
39931;DHT22;26635;-35.248;149.138;2023-06-05T13:11:02;11.80;91.90
39931;DHT22;26635;-35.248;149.138;2023-06-05T13:13:32;11.80;91.80
39931;DHT22;26635;-35.248;149.138;2023-06-05T13:16:03;11.80;91.70
39931;DHT22;26635;-35.248;149.138;2023-06-05T13:18:38;11.80;91.60
39931;DHT22;26635;-35.248;149.138;2023-06-05T13:21:09;11.80;91.70
39931;DHT22;26635;-35.248;149.138;2023-06-05T13:23:39;11.80;91.70
39931;DHT22;26635;-35.248;149.138;2023-06-05T13:26:10;11.70;91.60
39931;DHT22;26635;-35.248;149.138;2023-06-05T13:28:40;11.80;91.60
39931;DHT22;26635;-35.248;149.138;2023-06-05T13:31:14;11.80;91.80
39931;DHT22;26635;-35.248;149.138;2023-06-05T13:33:46;11.80;91.50
39931;DHT22;26635;-35.248;149.138;2023-06-05T13:36:16;11.80;91.50
39931;DHT22;26635;-35.248;149.138;2023-06-05T13:38:46;11.80;91.50
39931;DHT22;26635;-35.248;149.138;2023-06-05T13:41:17;11.80;91.70
39931;DHT22;26635;-35.248;149.138;2023-06-05T13:43:47;11.80;91.40
39931;DHT22;26635;-35.248;149.138;2023-06-05T13:46:18;11.80;91.50
39931;DHT22;26635;-35.248;149.138;2023-06-05T13:48:48;11.80;91.50
39931;DHT22;26635;-35.248;149.138;2023-06-05T13:51:18;11.80;91.50
39931;DHT22;26635;-35.248;149.138;2023-06-05T13:53:49;11.80;91.60
39931;DHT22;26635;-35.248;149.138;2023-06-05T13:56:19;11.80;91.60
39931;DHT22;26635;-35.248;149.138;2023-06-05T13:58:49;11.80;91.80
39931;DHT22;26635;-35.248;149.138;2023-06-05T14:01:20;11.80;91.80
39931;DHT22;26635;-35.248;149.138;2023-06-05T14:03:50;11.80;91.90
39931;DHT22;26635;-35.248;149.138;2023-06-05T14:06:21;11.80;91.80
39931;DHT22;26635;-35.248;149.138;2023-06-05T14:08:52;11.80;91.80
39931;DHT22;26635;-35.248;149.138;2023-06-05T14:11:23;11.80;91.90
39931;DHT22;26635;-35.248;149.138;2023-06-05T14:13:53;11.80;91.80
39931;DHT22;26635;-35.248;149.138;2023-06-05T14:16:24;11.80;91.60
39931;DHT22;26635;-35.248;149.138;2023-06-05T14:18:55;11.80;91.80
39931;DHT22;26635;-35.248;149.138;2023-06-05T14:21:25;11.80;91.70
39931;DHT22;26635;-35.248;149.138;2023-06-05T14:23:56;11.80;91.70
39931;DHT22;26635;-35.248;149.138;2023-06-05T14:26:26;11.80;91.60
39931;DHT22;26635;-35.248;149.138;2023-06-05T14:28:58;11.80;91.60
39931;DHT22;26635;-35.248;149.138;2023-06-05T14:31:29;11.80;91.60
39931;DHT22;26635;-35.248;149.138;2023-06-05T14:33:59;11.80;92.10
39931;DHT22;26635;-35.248;149.138;2023-06-05T14:36:30;11.80;91.90
39931;DHT22;26635;-35.248;149.138;2023-06-05T14:39:01;11.80;91.80
39931;DHT22;26635;-35.248;149.138;2023-06-05T14:41:33;11.80;91.70
39931;DHT22;26635;-35.248;149.138;2023-06-05T14:44:04;11.80;91.60
39931;DHT22;26635;-35.248;149.138;2023-06-05T14:46:49;11.80;92.20
39931;DHT22;26635;-35.248;149.138;2023-06-05T14:49:20;11.70;93.40
39931;DHT22;26635;-35.248;149.138;2023-06-05T14:51:51;11.70;93.60
39931;DHT22;26635;-35.248;149.138;2023-06-05T14:54:21;11.60;94.00
39931;DHT22;26635;-35.248;149.138;2023-06-05T14:56:52;11.60;94.00
39931;DHT22;26635;-35.248;149.138;2023-06-05T14:59:23;11.50;94.10
39931;DHT22;26635;-35.248;149.138;2023-06-05T15:01:55;11.50;94.30
39931;DHT22;26635;-35.248;149.138;2023-06-05T15:04:26;11.40;94.70
39931;DHT22;26635;-35.248;149.138;2023-06-05T15:06:57;11.40;95.00
39931;DHT22;26635;-35.248;149.138;2023-06-05T15:09:28;11.30;95.30
39931;DHT22;26635;-35.248;149.138;2023-06-05T15:11:59;11.30;95.50
39931;DHT22;26635;-35.248;149.138;2023-06-05T15:14:29;11.20;95.70
39931;DHT22;26635;-35.248;149.138;2023-06-05T15:17:00;11.20;95.80
39931;DHT22;26635;-35.248;149.138;2023-06-05T15:19:30;11.20;95.60
39931;DHT22;26635;-35.248;149.138;2023-06-05T15:22:01;11.20;95.70
39931;DHT22;26635;-35.248;149.138;2023-06-05T15:24:33;11.10;96.00
39931;DHT22;26635;-35.248;149.138;2023-06-05T15:27:04;11.20;96.20
39931;DHT22;26635;-35.248;149.138;2023-06-05T15:29:35;11.10;95.90
39931;DHT22;26635;-35.248;149.138;2023-06-05T15:32:05;11.20;95.70
39931;DHT22;26635;-35.248;149.138;2023-06-05T15:34:47;11.10;95.70
39931;DHT22;26635;-35.248;149.138;2023-06-05T15:37:18;11.10;95.80
39931;DHT22;26635;-35.248;149.138;2023-06-05T15:39:51;11.10;95.70
39931;DHT22;26635;-35.248;149.138;2023-06-05T15:42:33;11.10;95.80
39931;DHT22;26635;-35.248;149.138;2023-06-05T15:45:11;11.00;95.80
39931;DHT22;26635;-35.248;149.138;2023-06-05T15:47:42;11.00;96.00
39931;DHT22;26635;-35.248;149.138;2023-06-05T15:50:13;11.00;95.90
39931;DHT22;26635;-35.248;149.138;2023-06-05T15:52:46;11.00;96.10
39931;DHT22;26635;-35.248;149.138;2023-06-05T15:55:18;10.90;96.00